sensor_id;sensor_type;location;lat;lon;timestamp;temperature;humidity
74376;HTU21D;62812;55.188;61.302;2023-08-30T00:01:57;11.49;88.84
74376;HTU21D;62812;55.188;61.302;2023-08-30T00:04:25;11.45;89.18
74376;HTU21D;62812;55.188;61.302;2023-08-30T00:06:52;11.38;90.42
74376;HTU21D;62812;55.188;61.302;2023-08-30T00:09:20;11.26;89.27
74376;HTU21D;62812;55.188;61.302;2023-08-30T00:11:50;11.16;89.21
74376;HTU21D;62812;55.188;61.302;2023-08-30T00:14:19;11.10;90.15
74376;HTU21D;62812;55.188;61.302;2023-08-30T00:16:46;11.07;89.25
74376;HTU21D;62812;55.188;61.302;2023-08-30T00:19:13;11.05;89.54
74376;HTU21D;62812;55.188;61.302;2023-08-30T00:21:40;11.04;89.79
74376;HTU21D;62812;55.188;61.302;2023-08-30T00:24:07;11.05;90.15
74376;HTU21D;62812;55.188;61.302;2023-08-30T00:26:35;11.05;90.82
74376;HTU21D;62812;55.188;61.302;2023-08-30T00:29:02;11.07;90.44
74376;HTU21D;62812;55.188;61.302;2023-08-30T00:31:29;11.08;90.80
74376;HTU21D;62812;55.188;61.302;2023-08-30T00:33:56;11.04;89.72
74376;HTU21D;62812;55.188;61.302;2023-08-30T00:36:23;10.94;89.22
74376;HTU21D;62812;55.188;61.302;2023-08-30T00:38:50;10.92;90.20
74376;HTU21D;62812;55.188;61.302;2023-08-30T00:41:17;10.95;90.77
74376;HTU21D;62812;55.188;61.302;2023-08-30T00:43:46;10.97;90.63
74376;HTU21D;62812;55.188;61.302;2023-08-30T00:46:13;10.97;90.02
74376;HTU21D;62812;55.188;61.302;2023-08-30T00:48:40;10.96;88.82
74376;HTU21D;62812;55.188;61.302;2023-08-30T00:51:07;10.94;89.44
74376;HTU21D;62812;55.188;61.302;2023-08-30T00:53:36;10.97;89.61
74376;HTU21D;62812;55.188;61.302;2023-08-30T00:56:03;11.00;89.81
74376;HTU21D;62812;55.188;61.302;2023-08-30T00:58:30;10.96;89.02
74376;HTU21D;62812;55.188;61.302;2023-08-30T01:00:59;10.98;89.30
74376;HTU21D;62812;55.188;61.302;2023-08-30T01:03:27;10.96;89.03
74376;HTU21D;62812;55.188;61.302;2023-08-30T01:05:54;10.89;88.43
74376;HTU21D;62812;55.188;61.302;2023-08-30T01:08:21;10.81;89.25
74376;HTU21D;62812;55.188;61.302;2023-08-30T01:10:59;10.77;89.09
74376;HTU21D;62812;55.188;61.302;2023-08-30T01:13:30;10.74;90.25
74376;HTU21D;62812;55.188;61.302;2023-08-30T01:15:59;10.71;88.92
74376;HTU21D;62812;55.188;61.302;2023-08-30T01:18:27;10.62;89.85
74376;HTU21D;62812;55.188;61.302;2023-08-30T01:20:57;10.60;89.69
74376;HTU21D;62812;55.188;61.302;2023-08-30T01:23:33;10.60;89.07
74376;HTU21D;62812;55.188;61.302;2023-08-30T01:26:08;10.56;89.51
74376;HTU21D;62812;55.188;61.302;2023-08-30T01:28:38;10.59;90.41
74376;HTU21D;62812;55.188;61.302;2023-08-30T01:31:08;10.63;89.74
74376;HTU21D;62812;55.188;61.302;2023-08-30T01:33:36;10.66;89.72
74376;HTU21D;62812;55.188;61.302;2023-08-30T01:36:05;10.66;89.21
74376;HTU21D;62812;55.188;61.302;2023-08-30T01:38:34;10.65;89.79
74376;HTU21D;62812;55.188;61.302;2023-08-30T01:41:02;10.62;89.19
74376;HTU21D;62812;55.188;61.302;2023-08-30T01:43:29;10.55;89.51
74376;HTU21D;62812;55.188;61.302;2023-08-30T01:45:58;10.59;90.54
74376;HTU21D;62812;55.188;61.302;2023-08-30T01:48:27;10.54;90.22
74376;HTU21D;62812;55.188;61.302;2023-08-30T01:50:55;10.51;89.86
74376;HTU21D;62812;55.188;61.302;2023-08-30T01:53:25;10.50;90.37
74376;HTU21D;62812;55.188;61.302;2023-08-30T01:55:53;10.54;90.34
74376;HTU21D;62812;55.188;61.302;2023-08-30T01:58:20;10.52;88.83
74376;HTU21D;62812;55.188;61.302;2023-08-30T02:00:47;10.53;90.22
74376;HTU21D;62812;55.188;61.302;2023-08-30T02:03:15;10.52;89.57
74376;HTU21D;62812;55.188;61.302;2023-08-30T02:05:52;10.53;89.98
74376;HTU21D;62812;55.188;61.302;2023-08-30T02:08:26;10.51;89.37
74376;HTU21D;62812;55.188;61.302;2023-08-30T02:10:56;10.53;89.76
74376;HTU21D;62812;55.188;61.302;2023-08-30T02:13:28;10.53;89.28
74376;HTU21D;62812;55.188;61.302;2023-08-30T02:15:56;10.55;90.58
74376;HTU21D;62812;55.188;61.302;2023-08-30T02:18:26;10.54;89.61
74376;HTU21D;62812;55.188;61.302;2023-08-30T02:20:53;10.53;89.47
74376;HTU21D;62812;55.188;61.302;2023-08-30T02:23:23;10.52;90.32
74376;HTU21D;62812;55.188;61.302;2023-08-30T02:25:50;10.51;90.18
74376;HTU21D;62812;55.188;61.302;2023-08-30T02:28:16;10.51;90.00
74376;HTU21D;62812;55.188;61.302;2023-08-30T02:30:43;10.59;90.34
74376;HTU21D;62812;55.188;61.302;2023-08-30T02:33:11;10.58;89.89
74376;HTU21D;62812;55.188;61.302;2023-08-30T02:35:39;10.63;90.49
74376;HTU21D;62812;55.188;61.302;2023-08-30T02:38:05;10.64;90.23
74376;HTU21D;62812;55.188;61.302;2023-08-30T02:40:33;10.63;89.79
74376;HTU21D;62812;55.188;61.302;2023-08-30T02:43:00;10.62;89.77
74376;HTU21D;62812;55.188;61.302;2023-08-30T02:45:26;10.52;89.55
74376;HTU21D;62812;55.188;61.302;2023-08-30T02:47:55;10.46;89.54
74376;HTU21D;62812;55.188;61.302;2023-08-30T02:50:21;10.45;90.32
74376;HTU21D;62812;55.188;61.302;2023-08-30T02:52:50;10.50;89.98
74376;HTU21D;62812;55.188;61.302;2023-08-30T02:55:16;10.42;89.35
74376;HTU21D;62812;55.188;61.302;2023-08-30T02:57:43;10.42;90.33
74376;HTU21D;62812;55.188;61.302;2023-08-30T03:00:10;10.42;90.34
74376;HTU21D;62812;55.188;61.302;2023-08-30T03:02:37;10.37;90.56
74376;HTU21D;62812;55.188;61.302;2023-08-30T03:05:04;10.42;90.22
74376;HTU21D;62812;55.188;61.302;2023-08-30T03:07:31;10.43;90.24
74376;HTU21D;62812;55.188;61.302;2023-08-30T03:10:00;10.34;90.12
74376;HTU21D;62812;55.188;61.302;2023-08-30T03:12:26;10.34;90.33
74376;HTU21D;62812;55.188;61.302;2023-08-30T03:14:54;10.29;90.89
74376;HTU21D;62812;55.188;61.302;2023-08-30T03:17:21;10.23;90.45
74376;HTU21D;62812;55.188;61.302;2023-08-30T03:19:47;10.20;90.83
74376;HTU21D;62812;55.188;61.302;2023-08-30T03:22:14;10.18;90.58
74376;HTU21D;62812;55.188;61.302;2023-08-30T03:24:41;10.23;91.38
74376;HTU21D;62812;55.188;61.302;2023-08-30T03:27:09;10.28;91.33
74376;HTU21D;62812;55.188;61.302;2023-08-30T03:29:36;10.36;91.27
74376;HTU21D;62812;55.188;61.302;2023-08-30T03:32:03;10.37;90.72
74376;HTU21D;62812;55.188;61.302;2023-08-30T03:34:30;10.46;90.53
74376;HTU21D;62812;55.188;61.302;2023-08-30T03:36:57;10.53;90.50
74376;HTU21D;62812;55.188;61.302;2023-08-30T03:39:24;10.58;90.52
74376;HTU21D;62812;55.188;61.302;2023-08-30T03:41:51;10.52;90.31
74376;HTU21D;62812;55.188;61.302;2023-08-30T03:44:20;10.56;90.11
74376;HTU21D;62812;55.188;61.302;2023-08-30T03:46:47;10.58;90.63
74376;HTU21D;62812;55.188;61.302;2023-08-30T03:49:14;10.58;89.99
74376;HTU21D;62812;55.188;61.302;2023-08-30T03:51:40;10.58;90.63
74376;HTU21D;62812;55.188;61.302;2023-08-30T03:54:07;10.54;90.56
74376;HTU21D;62812;55.188;61.302;2023-08-30T03:56:39;10.60;90.42
74376;HTU21D;62812;55.188;61.302;2023-08-30T03:59:06;10.67;90.21
74376;HTU21D;62812;55.188;61.302;2023-08-30T04:01:35;10.64;88.99
74376;HTU21D;62812;55.188;61.302;2023-08-30T04:04:06;10.53;90.15
74376;HTU21D;62812;55.188;61.302;2023-08-30T04:06:33;10.56;90.36
74376;HTU21D;62812;55.188;61.302;2023-08-30T04:09:00;10.57;90.29
74376;HTU21D;62812;55.188;61.302;2023-08-30T04:11:27;10.56;90.37
74376;HTU21D;62812;55.188;61.302;2023-08-30T04:13:53;10.64;90.92
74376;HTU21D;62812;55.188;61.302;2023-08-30T04:16:23;10.62;90.12
74376;HTU21D;62812;55.188;61.302;2023-08-30T04:18:53;10.52;90.35
74376;HTU21D;62812;55.188;61.302;2023-08-30T04:21:20;10.53;90.82
74376;HTU21D;62812;55.188;61.302;2023-08-30T04:23:47;10.53;90.70
74376;HTU21D;62812;55.188;61.302;2023-08-30T04:26:14;10.56;89.44
74376;HTU21D;62812;55.188;61.302;2023-08-30T04:28:41;10.60;91.08
74376;HTU21D;62812;55.188;61.302;2023-08-30T04:31:08;10.62;89.98
74376;HTU21D;62812;55.188;61.302;2023-08-30T04:33:41;10.58;91.21
74376;HTU21D;62812;55.188;61.302;2023-08-30T04:36:26;10.57;90.79
74376;HTU21D;62812;55.188;61.302;2023-08-30T04:38:55;10.57;90.05
74376;HTU21D;62812;55.188;61.302;2023-08-30T04:41:22;10.53;90.81
74376;HTU21D;62812;55.188;61.302;2023-08-30T04:44:04;10.51;90.85
74376;HTU21D;62812;55.188;61.302;2023-08-30T04:46:31;10.55;91.76
74376;HTU21D;62812;55.188;61.302;2023-08-30T04:48:58;10.52;90.41
74376;HTU21D;62812;55.188;61.302;2023-08-30T04:51:26;10.54;90.96
74376;HTU21D;62812;55.188;61.302;2023-08-30T04:53:54;10.57;90.64
74376;HTU21D;62812;55.188;61.302;2023-08-30T04:56:24;10.55;89.89
74376;HTU21D;62812;55.188;61.302;2023-08-30T04:58:51;10.56;90.80
74376;HTU21D;62812;55.188;61.302;2023-08-30T05:01:18;10.64;91.61
74376;HTU21D;62812;55.188;61.302;2023-08-30T05:03:46;10.64;90.67
74376;HTU21D;62812;55.188;61.302;2023-08-30T05:06:18;10.63;91.04
74376;HTU21D;62812;55.188;61.302;2023-08-30T05:08:50;10.65;90.94
74376;HTU21D;62812;55.188;61.302;2023-08-30T05:11:17;10.72;90.35
74376;HTU21D;62812;55.188;61.302;2023-08-30T05:13:45;10.78;90.37
74376;HTU21D;62812;55.188;61.302;2023-08-30T05:16:12;10.72;90.02
74376;HTU21D;62812;55.188;61.302;2023-08-30T05:18:41;10.78;89.77
74376;HTU21D;62812;55.188;61.302;2023-08-30T05:21:07;10.73;90.18
74376;HTU21D;62812;55.188;61.302;2023-08-30T05:23:34;10.82;90.13
74376;HTU21D;62812;55.188;61.302;2023-08-30T05:26:07;10.81;89.60
74376;HTU21D;62812;55.188;61.302;2023-08-30T05:28:38;10.75;89.70
74376;HTU21D;62812;55.188;61.302;2023-08-30T05:31:05;10.82;89.75
74376;HTU21D;62812;55.188;61.302;2023-08-30T05:33:38;10.82;89.92
74376;HTU21D;62812;55.188;61.302;2023-08-30T05:36:09;10.84;89.79
74376;HTU21D;62812;55.188;61.302;2023-08-30T05:39:06;10.85;90.03
74376;HTU21D;62812;55.188;61.302;2023-08-30T05:42:01;10.81;90.18
74376;HTU21D;62812;55.188;61.302;2023-08-30T05:45:07;10.86;89.36
74376;HTU21D;62812;55.188;61.302;2023-08-30T05:47:39;10.85;89.77
74376;HTU21D;62812;55.188;61.302;2023-08-30T05:50:11;10.88;89.98
74376;HTU21D;62812;55.188;61.302;2023-08-30T05:52:38;10.87;90.25
74376;HTU21D;62812;55.188;61.302;2023-08-30T05:55:12;10.83;90.10
74376;HTU21D;62812;55.188;61.302;2023-08-30T05:57:49;10.88;90.70
74376;HTU21D;62812;55.188;61.302;2023-08-30T06:00:17;10.89;90.24
74376;HTU21D;62812;55.188;61.302;2023-08-30T06:02:44;10.90;90.18
74376;HTU21D;62812;55.188;61.302;2023-08-30T06:05:11;10.90;90.65
74376;HTU21D;62812;55.188;61.302;2023-08-30T06:07:38;10.90;90.55
74376;HTU21D;62812;55.188;61.302;2023-08-30T06:10:07;10.90;90.27
74376;HTU21D;62812;55.188;61.302;2023-08-30T06:12:37;10.95;90.29
74376;HTU21D;62812;55.188;61.302;2023-08-30T06:21:15;11.02;90.06
74376;HTU21D;62812;55.188;61.302;2023-08-30T06:23:51;10.95;89.95
74376;HTU21D;62812;55.188;61.302;2023-08-30T06:26:26;10.99;90.02
74376;HTU21D;62812;55.188;61.302;2023-08-30T06:29:01;10.98;90.53
74376;HTU21D;62812;55.188;61.302;2023-08-30T06:32:03;11.01;90.44
74376;HTU21D;62812;55.188;61.302;2023-08-30T06:34:56;11.01;91.21
74376;HTU21D;62812;55.188;61.302;2023-08-30T06:46:01;10.98;90.24
74376;HTU21D;62812;55.188;61.302;2023-08-30T06:48:53;10.96;90.28
74376;HTU21D;62812;55.188;61.302;2023-08-30T06:51:31;10.94;90.96
74376;HTU21D;62812;55.188;61.302;2023-08-30T06:54:08;10.93;90.45
74376;HTU21D;62812;55.188;61.302;2023-08-30T06:56:45;10.86;89.56
74376;HTU21D;62812;55.188;61.302;2023-08-30T06:59:55;10.80;90.82
74376;HTU21D;62812;55.188;61.302;2023-08-30T07:02:50;10.86;91.86
74376;HTU21D;62812;55.188;61.302;2023-08-30T07:05:42;10.80;90.96
74376;HTU21D;62812;55.188;61.302;2023-08-30T07:08:10;10.75;90.75
74376;HTU21D;62812;55.188;61.302;2023-08-30T07:10:37;10.86;91.72
74376;HTU21D;62812;55.188;61.302;2023-08-30T07:13:06;10.89;90.98
74376;HTU21D;62812;55.188;61.302;2023-08-30T07:15:50;10.88;90.36
74376;HTU21D;62812;55.188;61.302;2023-08-30T07:18:18;10.84;89.37
74376;HTU21D;62812;55.188;61.302;2023-08-30T07:20:45;10.78;91.22
74376;HTU21D;62812;55.188;61.302;2023-08-30T07:23:14;10.73;91.05
74376;HTU21D;62812;55.188;61.302;2023-08-30T07:25:42;10.83;90.80
74376;HTU21D;62812;55.188;61.302;2023-08-30T07:28:11;10.88;90.30
74376;HTU21D;62812;55.188;61.302;2023-08-30T07:30:41;10.84;90.15
74376;HTU21D;62812;55.188;61.302;2023-08-30T07:33:08;10.80;90.39
74376;HTU21D;62812;55.188;61.302;2023-08-30T07:35:38;10.82;90.24
74376;HTU21D;62812;55.188;61.302;2023-08-30T07:38:05;10.81;90.41
74376;HTU21D;62812;55.188;61.302;2023-08-30T07:40:34;10.77;90.66
74376;HTU21D;62812;55.188;61.302;2023-08-30T07:43:02;10.83;91.11
74376;HTU21D;62812;55.188;61.302;2023-08-30T07:45:28;10.89;91.27
74376;HTU21D;62812;55.188;61.302;2023-08-30T07:47:55;11.00;91.53
74376;HTU21D;62812;55.188;61.302;2023-08-30T07:50:23;11.03;90.83
74376;HTU21D;62812;55.188;61.302;2023-08-30T07:52:51;11.14;91.51
74376;HTU21D;62812;55.188;61.302;2023-08-30T07:55:17;11.22;90.24
74376;HTU21D;62812;55.188;61.302;2023-08-30T07:57:44;11.20;90.60
74376;HTU21D;62812;55.188;61.302;2023-08-30T08:00:12;11.28;89.23
74376;HTU21D;62812;55.188;61.302;2023-08-30T08:02:40;11.34;90.74
74376;HTU21D;62812;55.188;61.302;2023-08-30T08:05:08;11.41;90.03
74376;HTU21D;62812;55.188;61.302;2023-08-30T08:07:38;11.49;91.30
74376;HTU21D;62812;55.188;61.302;2023-08-30T08:13:24;11.71;89.05
74376;HTU21D;62812;55.188;61.302;2023-08-30T08:15:55;11.76;90.61
74376;HTU21D;62812;55.188;61.302;2023-08-30T08:18:23;11.90;89.73
74376;HTU21D;62812;55.188;61.302;2023-08-30T08:20:50;12.01;89.05
74376;HTU21D;62812;55.188;61.302;2023-08-30T08:23:17;12.21;89.63
74376;HTU21D;62812;55.188;61.302;2023-08-30T08:25:44;12.29;86.81
74376;HTU21D;62812;55.188;61.302;2023-08-30T08:28:11;12.41;89.21
74376;HTU21D;62812;55.188;61.302;2023-08-30T08:30:40;12.52;88.96
74376;HTU21D;62812;55.188;61.302;2023-08-30T08:33:08;12.67;86.86
74376;HTU21D;62812;55.188;61.302;2023-08-30T08:35:38;12.75;87.62
74376;HTU21D;62812;55.188;61.302;2023-08-30T08:38:06;12.74;87.54
74376;HTU21D;62812;55.188;61.302;2023-08-30T08:40:36;12.77;86.28
74376;HTU21D;62812;55.188;61.302;2023-08-30T08:43:05;12.89;86.96
74376;HTU21D;62812;55.188;61.302;2023-08-30T08:45:34;12.94;84.48
74376;HTU21D;62812;55.188;61.302;2023-08-30T08:48:05;13.03;87.27
74376;HTU21D;62812;55.188;61.302;2023-08-30T08:50:32;13.03;83.93
74376;HTU21D;62812;55.188;61.302;2023-08-30T08:53:03;13.01;86.84
74376;HTU21D;62812;55.188;61.302;2023-08-30T08:55:31;13.06;85.29
74376;HTU21D;62812;55.188;61.302;2023-08-30T08:57:58;13.12;86.64
74376;HTU21D;62812;55.188;61.302;2023-08-30T09:00:30;13.21;85.88
74376;HTU21D;62812;55.188;61.302;2023-08-30T09:02:59;13.32;84.95
74376;HTU21D;62812;55.188;61.302;2023-08-30T09:05:31;13.39;84.42
74376;HTU21D;62812;55.188;61.302;2023-08-30T09:08:02;13.48;85.22
74376;HTU21D;62812;55.188;61.302;2023-08-30T09:10:39;13.50;85.36
74376;HTU21D;62812;55.188;61.302;2023-08-30T09:13:24;13.62;85.86
74376;HTU21D;62812;55.188;61.302;2023-08-30T09:16:12;13.76;86.74
74376;HTU21D;62812;55.188;61.302;2023-08-30T09:18:40;13.78;86.82
74376;HTU21D;62812;55.188;61.302;2023-08-30T09:21:08;13.88;84.68
74376;HTU21D;62812;55.188;61.302;2023-08-30T09:23:36;14.00;86.71
74376;HTU21D;62812;55.188;61.302;2023-08-30T09:26:03;14.14;86.36
74376;HTU21D;62812;55.188;61.302;2023-08-30T09:28:30;14.09;79.15
74376;HTU21D;62812;55.188;61.302;2023-08-30T09:30:58;14.01;79.71
74376;HTU21D;62812;55.188;61.302;2023-08-30T09:33:31;14.13;84.97
74376;HTU21D;62812;55.188;61.302;2023-08-30T09:36:22;14.34;81.36
74376;HTU21D;62812;55.188;61.302;2023-08-30T09:39:05;14.34;81.23
74376;HTU21D;62812;55.188;61.302;2023-08-30T09:41:32;14.24;81.26
74376;HTU21D;62812;55.188;61.302;2023-08-30T09:44:00;14.21;82.62
74376;HTU21D;62812;55.188;61.302;2023-08-30T09:46:32;14.09;76.40
74376;HTU21D;62812;55.188;61.302;2023-08-30T09:49:06;14.05;81.32
74376;HTU21D;62812;55.188;61.302;2023-08-30T09:51:37;13.81;77.67
74376;HTU21D;62812;55.188;61.302;2023-08-30T09:54:15;13.64;79.01
74376;HTU21D;62812;55.188;61.302;2023-08-30T09:56:51;13.48;77.77
74376;HTU21D;62812;55.188;61.302;2023-08-30T09:59:23;13.40;79.95
74376;HTU21D;62812;55.188;61.302;2023-08-30T10:01:50;13.30;79.91
74376;HTU21D;62812;55.188;61.302;2023-08-30T10:04:26;13.31;76.98
74376;HTU21D;62812;55.188;61.302;2023-08-30T10:06:56;13.24;78.92
74376;HTU21D;62812;55.188;61.302;2023-08-30T10:09:24;13.15;81.29
74376;HTU21D;62812;55.188;61.302;2023-08-30T10:11:51;13.19;83.27
74376;HTU21D;62812;55.188;61.302;2023-08-30T10:14:18;13.30;86.29
74376;HTU21D;62812;55.188;61.302;2023-08-30T10:16:46;13.47;82.79
74376;HTU21D;62812;55.188;61.302;2023-08-30T10:19:15;13.51;84.50
74376;HTU21D;62812;55.188;61.302;2023-08-30T10:21:43;13.55;85.10
74376;HTU21D;62812;55.188;61.302;2023-08-30T10:24:15;13.71;83.99
74376;HTU21D;62812;55.188;61.302;2023-08-30T10:26:44;13.84;84.33
74376;HTU21D;62812;55.188;61.302;2023-08-30T10:29:12;13.89;83.40
74376;HTU21D;62812;55.188;61.302;2023-08-30T10:31:43;13.90;83.84
74376;HTU21D;62812;55.188;61.302;2023-08-30T10:34:13;13.86;82.06
74376;HTU21D;62812;55.188;61.302;2023-08-30T10:36:41;13.79;78.97
74376;HTU21D;62812;55.188;61.302;2023-08-30T10:39:13;13.67;77.55
74376;HTU21D;62812;55.188;61.302;2023-08-30T10:41:56;13.35;76.79
74376;HTU21D;62812;55.188;61.302;2023-08-30T10:44:23;13.10;80.32
74376;HTU21D;62812;55.188;61.302;2023-08-30T10:46:53;13.07;82.07
74376;HTU21D;62812;55.188;61.302;2023-08-30T10:49:20;13.03;81.23
74376;HTU21D;62812;55.188;61.302;2023-08-30T10:51:55;13.06;84.93
74376;HTU21D;62812;55.188;61.302;2023-08-30T10:54:25;13.03;84.97
74376;HTU21D;62812;55.188;61.302;2023-08-30T10:56:56;13.06;85.75
74376;HTU21D;62812;55.188;61.302;2023-08-30T10:59:27;13.10;85.15
74376;HTU21D;62812;55.188;61.302;2023-08-30T11:01:56;13.11;86.30
74376;HTU21D;62812;55.188;61.302;2023-08-30T11:04:52;13.12;86.18
74376;HTU21D;62812;55.188;61.302;2023-08-30T11:07:19;13.16;87.38
74376;HTU21D;62812;55.188;61.302;2023-08-30T11:09:55;13.24;87.13
74376;HTU21D;62812;55.188;61.302;2023-08-30T11:12:24;13.35;88.54
74376;HTU21D;62812;55.188;61.302;2023-08-30T11:14:56;13.47;88.61
74376;HTU21D;62812;55.188;61.302;2023-08-30T11:17:23;13.58;88.37
74376;HTU21D;62812;55.188;61.302;2023-08-30T11:19:51;13.63;87.58
74376;HTU21D;62812;55.188;61.302;2023-08-30T11:22:18;13.63;86.91
74376;HTU21D;62812;55.188;61.302;2023-08-30T11:24:47;13.67;86.83
74376;HTU21D;62812;55.188;61.302;2023-08-30T11:27:17;13.75;87.54
74376;HTU21D;62812;55.188;61.302;2023-08-30T11:29:44;13.80;87.49
74376;HTU21D;62812;55.188;61.302;2023-08-30T11:32:12;13.83;85.86
74376;HTU21D;62812;55.188;61.302;2023-08-30T11:34:40;13.88;85.87
74376;HTU21D;62812;55.188;61.302;2023-08-30T11:37:08;13.93;87.09
74376;HTU21D;62812;55.188;61.302;2023-08-30T11:39:35;13.89;83.52
74376;HTU21D;62812;55.188;61.302;2023-08-30T11:42:04;13.91;85.83
74376;HTU21D;62812;55.188;61.302;2023-08-30T11:44:38;13.91;86.56
74376;HTU21D;62812;55.188;61.302;2023-08-30T11:47:06;13.92;87.37
74376;HTU21D;62812;55.188;61.302;2023-08-30T11:49:32;13.94;86.54
74376;HTU21D;62812;55.188;61.302;2023-08-30T11:52:00;13.99;87.03
74376;HTU21D;62812;55.188;61.302;2023-08-30T11:54:27;14.05;87.86
74376;HTU21D;62812;55.188;61.302;2023-08-30T11:56:53;14.08;87.48
74376;HTU21D;62812;55.188;61.302;2023-08-30T11:59:20;14.12;85.06
74376;HTU21D;62812;55.188;61.302;2023-08-30T12:01:52;14.12;87.03
74376;HTU21D;62812;55.188;61.302;2023-08-30T12:04:21;14.15;85.90
74376;HTU21D;62812;55.188;61.302;2023-08-30T12:06:51;14.19;83.55
74376;HTU21D;62812;55.188;61.302;2023-08-30T12:09:18;14.17;81.62
74376;HTU21D;62812;55.188;61.302;2023-08-30T12:11:51;14.19;84.59
74376;HTU21D;62812;55.188;61.302;2023-08-30T12:14:18;14.26;84.52
74376;HTU21D;62812;55.188;61.302;2023-08-30T12:16:45;14.26;83.41
74376;HTU21D;62812;55.188;61.302;2023-08-30T12:19:32;14.30;83.01
74376;HTU21D;62812;55.188;61.302;2023-08-30T12:22:03;14.27;81.15
74376;HTU21D;62812;55.188;61.302;2023-08-30T12:24:41;14.30;83.06
74376;HTU21D;62812;55.188;61.302;2023-08-30T12:27:08;14.25;81.12
74376;HTU21D;62812;55.188;61.302;2023-08-30T12:29:35;14.24;83.55
74376;HTU21D;62812;55.188;61.302;2023-08-30T12:32:02;14.15;81.52
74376;HTU21D;62812;55.188;61.302;2023-08-30T12:34:31;14.12;83.84
74376;HTU21D;62812;55.188;61.302;2023-08-30T12:36:59;14.14;81.69
74376;HTU21D;62812;55.188;61.302;2023-08-30T12:39:26;14.11;81.53
74376;HTU21D;62812;55.188;61.302;2023-08-30T12:41:53;14.13;80.07
74376;HTU21D;62812;55.188;61.302;2023-08-30T12:44:20;14.19;81.91
74376;HTU21D;62812;55.188;61.302;2023-08-30T12:46:47;14.12;78.37
74376;HTU21D;62812;55.188;61.302;2023-08-30T12:49:14;14.10;81.20
74376;HTU21D;62812;55.188;61.302;2023-08-30T12:51:42;14.11;81.09
74376;HTU21D;62812;55.188;61.302;2023-08-30T12:54:09;14.04;81.23
74376;HTU21D;62812;55.188;61.302;2023-08-30T12:56:36;13.98;77.95
74376;HTU21D;62812;55.188;61.302;2023-08-30T12:59:03;13.94;80.78
74376;HTU21D;62812;55.188;61.302;2023-08-30T13:01:34;13.92;81.00
74376;HTU21D;62812;55.188;61.302;2023-08-30T13:04:11;13.95;81.97
74376;HTU21D;62812;55.188;61.302;2023-08-30T13:06:38;13.89;81.46
74376;HTU21D;62812;55.188;61.302;2023-08-30T13:09:07;13.90;82.79
74376;HTU21D;62812;55.188;61.302;2023-08-30T13:11:33;13.85;81.68
74376;HTU21D;62812;55.188;61.302;2023-08-30T13:14:00;13.82;79.56
74376;HTU21D;62812;55.188;61.302;2023-08-30T13:16:27;13.80;80.13
74376;HTU21D;62812;55.188;61.302;2023-08-30T13:18:53;13.76;80.87
74376;HTU21D;62812;55.188;61.302;2023-08-30T13:21:20;13.70;79.58
74376;HTU21D;62812;55.188;61.302;2023-08-30T13:23:47;13.65;77.10
74376;HTU21D;62812;55.188;61.302;2023-08-30T13:26:15;13.59;79.39
74376;HTU21D;62812;55.188;61.302;2023-08-30T13:28:41;13.60;78.11
74376;HTU21D;62812;55.188;61.302;2023-08-30T13:31:08;13.54;78.59
74376;HTU21D;62812;55.188;61.302;2023-08-30T13:33:34;13.50;81.29
74376;HTU21D;62812;55.188;61.302;2023-08-30T13:36:01;13.55;82.09
74376;HTU21D;62812;55.188;61.302;2023-08-30T13:38:28;13.59;80.30
74376;HTU21D;62812;55.188;61.302;2023-08-30T13:40:58;13.60;82.65
74376;HTU21D;62812;55.188;61.302;2023-08-30T13:43:27;13.59;83.78
74376;HTU21D;62812;55.188;61.302;2023-08-30T13:45:57;13.49;79.23
74376;HTU21D;62812;55.188;61.302;2023-08-30T13:48:24;13.41;81.31
74376;HTU21D;62812;55.188;61.302;2023-08-30T13:50:53;13.30;78.53
74376;HTU21D;62812;55.188;61.302;2023-08-30T13:53:22;13.22;80.40
74376;HTU21D;62812;55.188;61.302;2023-08-30T13:55:50;13.18;81.55
74376;HTU21D;62812;55.188;61.302;2023-08-30T13:58:17;13.15;83.78
74376;HTU21D;62812;55.188;61.302;2023-08-30T14:00:48;13.16;82.42
74376;HTU21D;62812;55.188;61.302;2023-08-30T14:03:15;13.12;79.58
74376;HTU21D;62812;55.188;61.302;2023-08-30T14:05:41;13.10;82.42
74376;HTU21D;62812;55.188;61.302;2023-08-30T14:08:15;13.07;82.02
74376;HTU21D;62812;55.188;61.302;2023-08-30T14:10:42;13.02;79.68
74376;HTU21D;62812;55.188;61.302;2023-08-30T14:13:08;12.97;81.35
74376;HTU21D;62812;55.188;61.302;2023-08-30T14:15:41;12.94;81.28
74376;HTU21D;62812;55.188;61.302;2023-08-30T14:18:16;12.94;84.07
74376;HTU21D;62812;55.188;61.302;2023-08-30T14:20:45;12.95;84.75
74376;HTU21D;62812;55.188;61.302;2023-08-30T14:23:17;12.96;84.44
74376;HTU21D;62812;55.188;61.302;2023-08-30T14:25:44;12.95;83.49
74376;HTU21D;62812;55.188;61.302;2023-08-30T14:28:18;12.95;84.49
74376;HTU21D;62812;55.188;61.302;2023-08-30T14:30:52;12.94;84.35
74376;HTU21D;62812;55.188;61.302;2023-08-30T14:33:24;12.91;84.47
74376;HTU21D;62812;55.188;61.302;2023-08-30T14:36:15;12.89;84.45
74376;HTU21D;62812;55.188;61.302;2023-08-30T14:38:57;12.84;83.42
74376;HTU21D;62812;55.188;61.302;2023-08-30T14:41:25;12.82;83.66
74376;HTU21D;62812;55.188;61.302;2023-08-30T14:43:55;12.79;83.83
74376;HTU21D;62812;55.188;61.302;2023-08-30T14:46:32;12.79;83.68
74376;HTU21D;62812;55.188;61.302;2023-08-30T14:49:12;12.77;85.93
74376;HTU21D;62812;55.188;61.302;2023-08-30T14:51:39;12.72;84.35
74376;HTU21D;62812;55.188;61.302;2023-08-30T14:54:06;12.69;85.25
74376;HTU21D;62812;55.188;61.302;2023-08-30T14:56:38;12.67;85.49
74376;HTU21D;62812;55.188;61.302;2023-08-30T14:59:04;12.61;83.72
74376;HTU21D;62812;55.188;61.302;2023-08-30T15:01:55;12.57;85.35
74376;HTU21D;62812;55.188;61.302;2023-08-30T15:04:26;12.55;84.36
74376;HTU21D;62812;55.188;61.302;2023-08-30T15:07:05;12.50;84.23
74376;HTU21D;62812;55.188;61.302;2023-08-30T15:09:32;12.45;84.18
74376;HTU21D;62812;55.188;61.302;2023-08-30T15:12:04;12.43;85.17
74376;HTU21D;62812;55.188;61.302;2023-08-30T15:14:40;12.38;84.88
74376;HTU21D;62812;55.188;61.302;2023-08-30T15:17:09;12.33;85.26
74376;HTU21D;62812;55.188;61.302;2023-08-30T15:19:41;12.31;85.48
74376;HTU21D;62812;55.188;61.302;2023-08-30T15:22:10;12.26;85.23
74376;HTU21D;62812;55.188;61.302;2023-08-30T15:24:37;12.23;85.17
74376;HTU21D;62812;55.188;61.302;2023-08-30T15:27:07;12.18;86.06
74376;HTU21D;62812;55.188;61.302;2023-08-30T15:29:49;12.16;84.62
74376;HTU21D;62812;55.188;61.302;2023-08-30T15:32:18;12.15;85.76
74376;HTU21D;62812;55.188;61.302;2023-08-30T15:34:50;12.13;85.11
74376;HTU21D;62812;55.188;61.302;2023-08-30T15:37:27;12.12;84.73
74376;HTU21D;62812;55.188;61.302;2023-08-30T15:39:59;12.12;85.15